sensor_id;sensor_type;location;lat;lon;timestamp;temperature;humidity
24456;DHT22;12628;50.860;5.714;2023-07-30T00:02:15;16.90;99.90
24456;DHT22;12628;50.860;5.714;2023-07-30T00:04:43;16.80;99.90
24456;DHT22;12628;50.860;5.714;2023-07-30T00:07:10;16.80;99.90
24456;DHT22;12628;50.860;5.714;2023-07-30T00:09:37;16.80;99.90
24456;DHT22;12628;50.860;5.714;2023-07-30T00:12:04;16.90;99.90
24456;DHT22;12628;50.860;5.714;2023-07-30T00:14:32;17.00;99.90
24456;DHT22;12628;50.860;5.714;2023-07-30T00:17:00;17.00;99.90
24456;DHT22;12628;50.860;5.714;2023-07-30T00:19:27;17.10;99.90
24456;DHT22;12628;50.860;5.714;2023-07-30T00:21:54;17.10;99.90
24456;DHT22;12628;50.860;5.714;2023-07-30T00:24:21;17.10;99.90
24456;DHT22;12628;50.860;5.714;2023-07-30T00:26:49;17.10;99.90
24456;DHT22;12628;50.860;5.714;2023-07-30T00:29:16;17.20;99.90
24456;DHT22;12628;50.860;5.714;2023-07-30T00:31:43;17.10;99.90
24456;DHT22;12628;50.860;5.714;2023-07-30T00:34:12;17.20;99.90
24456;DHT22;12628;50.860;5.714;2023-07-30T00:36:39;17.20;99.90
24456;DHT22;12628;50.860;5.714;2023-07-30T00:39:05;17.20;99.90
24456;DHT22;12628;50.860;5.714;2023-07-30T00:41:32;17.20;99.90
24456;DHT22;12628;50.860;5.714;2023-07-30T00:43:59;17.10;99.90
24456;DHT22;12628;50.860;5.714;2023-07-30T00:46:26;17.20;99.90
24456;DHT22;12628;50.860;5.714;2023-07-30T00:48:54;17.20;99.90
24456;DHT22;12628;50.860;5.714;2023-07-30T00:51:22;17.20;99.90
24456;DHT22;12628;50.860;5.714;2023-07-30T00:53:49;17.20;99.90
24456;DHT22;12628;50.860;5.714;2023-07-30T00:56:16;17.10;99.90
24456;DHT22;12628;50.860;5.714;2023-07-30T00:58:43;17.10;99.90
24456;DHT22;12628;50.860;5.714;2023-07-30T01:01:10;17.10;99.90
24456;DHT22;12628;50.860;5.714;2023-07-30T01:03:38;17.10;99.90
24456;DHT22;12628;50.860;5.714;2023-07-30T01:06:05;17.10;99.90
24456;DHT22;12628;50.860;5.714;2023-07-30T01:08:34;17.10;99.90
24456;DHT22;12628;50.860;5.714;2023-07-30T01:11:01;17.10;99.90
24456;DHT22;12628;50.860;5.714;2023-07-30T01:13:29;17.20;99.90
24456;DHT22;12628;50.860;5.714;2023-07-30T01:15:57;17.10;99.90
24456;DHT22;12628;50.860;5.714;2023-07-30T01:18:24;17.10;99.90
24456;DHT22;12628;50.860;5.714;2023-07-30T01:20:54;17.10;99.90
24456;DHT22;12628;50.860;5.714;2023-07-30T01:23:24;17.10;99.90
24456;DHT22;12628;50.860;5.714;2023-07-30T01:25:56;17.10;99.90
24456;DHT22;12628;50.860;5.714;2023-07-30T01:28:25;17.10;99.90
24456;DHT22;12628;50.860;5.714;2023-07-30T01:30:53;17.10;99.90
24456;DHT22;12628;50.860;5.714;2023-07-30T01:33:21;17.10;99.90
24456;DHT22;12628;50.860;5.714;2023-07-30T01:35:48;17.10;99.90
24456;DHT22;12628;50.860;5.714;2023-07-30T01:38:16;17.10;99.90
24456;DHT22;12628;50.860;5.714;2023-07-30T01:40:44;17.10;99.90
24456;DHT22;12628;50.860;5.714;2023-07-30T01:43:11;17.00;99.90
24456;DHT22;12628;50.860;5.714;2023-07-30T01:45:38;17.00;99.90
24456;DHT22;12628;50.860;5.714;2023-07-30T01:48:06;17.00;99.90
24456;DHT22;12628;50.860;5.714;2023-07-30T01:50:33;17.10;99.90
24456;DHT22;12628;50.860;5.714;2023-07-30T01:53:00;17.10;99.90
24456;DHT22;12628;50.860;5.714;2023-07-30T01:55:29;17.10;99.90
24456;DHT22;12628;50.860;5.714;2023-07-30T01:57:56;17.10;99.90
24456;DHT22;12628;50.860;5.714;2023-07-30T02:00:22;17.10;99.90
24456;DHT22;12628;50.860;5.714;2023-07-30T02:02:49;16.90;99.90
24456;DHT22;12628;50.860;5.714;2023-07-30T02:05:16;16.50;99.90
24456;DHT22;12628;50.860;5.714;2023-07-30T02:07:43;15.90;99.90
24456;DHT22;12628;50.860;5.714;2023-07-30T02:10:11;15.50;99.90
24456;DHT22;12628;50.860;5.714;2023-07-30T02:12:39;15.30;99.90
24456;DHT22;12628;50.860;5.714;2023-07-30T02:15:06;15.20;99.90
24456;DHT22;12628;50.860;5.714;2023-07-30T02:17:33;15.30;99.90
24456;DHT22;12628;50.860;5.714;2023-07-30T02:20:00;15.30;99.90
24456;DHT22;12628;50.860;5.714;2023-07-30T02:22:28;15.40;99.90
24456;DHT22;12628;50.860;5.714;2023-07-30T02:24:55;15.50;99.90
24456;DHT22;12628;50.860;5.714;2023-07-30T02:27:22;15.50;99.90
24456;DHT22;12628;50.860;5.714;2023-07-30T02:29:51;15.60;99.90
24456;DHT22;12628;50.860;5.714;2023-07-30T02:32:18;15.60;99.90
24456;DHT22;12628;50.860;5.714;2023-07-30T02:34:45;15.70;99.90
24456;DHT22;12628;50.860;5.714;2023-07-30T02:37:12;15.80;99.90
24456;DHT22;12628;50.860;5.714;2023-07-30T02:39:39;15.80;99.90
24456;DHT22;12628;50.860;5.714;2023-07-30T02:42:06;15.70;99.90
24456;DHT22;12628;50.860;5.714;2023-07-30T02:44:33;15.60;99.90
24456;DHT22;12628;50.860;5.714;2023-07-30T02:47:02;15.50;99.90
24456;DHT22;12628;50.860;5.714;2023-07-30T02:49:29;15.40;99.90
24456;DHT22;12628;50.860;5.714;2023-07-30T02:51:56;15.40;99.90
24456;DHT22;12628;50.860;5.714;2023-07-30T02:54:23;15.30;99.90
24456;DHT22;12628;50.860;5.714;2023-07-30T02:56:50;15.20;99.90
24456;DHT22;12628;50.860;5.714;2023-07-30T02:59:17;15.20;99.90
24456;DHT22;12628;50.860;5.714;2023-07-30T03:01:44;15.20;99.90
24456;DHT22;12628;50.860;5.714;2023-07-30T03:04:13;15.20;99.90
24456;DHT22;12628;50.860;5.714;2023-07-30T03:06:39;15.20;99.90
24456;DHT22;12628;50.860;5.714;2023-07-30T03:09:06;15.20;99.90
24456;DHT22;12628;50.860;5.714;2023-07-30T03:11:34;15.30;99.90
24456;DHT22;12628;50.860;5.714;2023-07-30T03:14:01;15.30;99.90
24456;DHT22;12628;50.860;5.714;2023-07-30T03:16:28;15.40;99.90
24456;DHT22;12628;50.860;5.714;2023-07-30T03:18:55;15.40;99.90
24456;DHT22;12628;50.860;5.714;2023-07-30T03:21:23;15.40;99.90
24456;DHT22;12628;50.860;5.714;2023-07-30T03:23:50;15.50;99.90
24456;DHT22;12628;50.860;5.714;2023-07-30T03:26:17;15.50;99.90
24456;DHT22;12628;50.860;5.714;2023-07-30T03:28:44;15.50;99.90
24456;DHT22;12628;50.860;5.714;2023-07-30T03:31:11;15.50;99.90
24456;DHT22;12628;50.860;5.714;2023-07-30T03:33:38;15.60;99.90
24456;DHT22;12628;50.860;5.714;2023-07-30T03:36:09;15.60;99.90
24456;DHT22;12628;50.860;5.714;2023-07-30T03:38:37;15.50;99.90
24456;DHT22;12628;50.860;5.714;2023-07-30T03:41:04;15.40;99.90
24456;DHT22;12628;50.860;5.714;2023-07-30T03:43:32;15.20;99.90
24456;DHT22;12628;50.860;5.714;2023-07-30T03:45:59;15.10;99.90
24456;DHT22;12628;50.860;5.714;2023-07-30T03:48:26;14.90;99.90
24456;DHT22;12628;50.860;5.714;2023-07-30T03:50:53;14.80;99.90
24456;DHT22;12628;50.860;5.714;2023-07-30T03:53:21;14.60;99.90
24456;DHT22;12628;50.860;5.714;2023-07-30T03:55:50;14.60;99.90
24456;DHT22;12628;50.860;5.714;2023-07-30T03:58:17;14.50;99.90
24456;DHT22;12628;50.860;5.714;2023-07-30T04:00:44;14.40;99.90
24456;DHT22;12628;50.860;5.714;2023-07-30T04:03:11;14.50;99.90
24456;DHT22;12628;50.860;5.714;2023-07-30T04:05:38;14.40;99.90
24456;DHT22;12628;50.860;5.714;2023-07-30T04:08:05;14.30;99.90
24456;DHT22;12628;50.860;5.714;2023-07-30T04:10:31;14.30;99.90
24456;DHT22;12628;50.860;5.714;2023-07-30T04:13:01;14.40;99.90
24456;DHT22;12628;50.860;5.714;2023-07-30T04:15:28;14.40;99.90
24456;DHT22;12628;50.860;5.714;2023-07-30T04:17:55;14.40;99.90
24456;DHT22;12628;50.860;5.714;2023-07-30T04:20:22;14.40;99.90
24456;DHT22;12628;50.860;5.714;2023-07-30T04:22:49;14.30;99.90
24456;DHT22;12628;50.860;5.714;2023-07-30T04:25:16;14.20;99.90
24456;DHT22;12628;50.860;5.714;2023-07-30T04:27:43;14.20;99.90
24456;DHT22;12628;50.860;5.714;2023-07-30T04:30:11;14.20;99.90
24456;DHT22;12628;50.860;5.714;2023-07-30T04:32:38;14.20;99.90
24456;DHT22;12628;50.860;5.714;2023-07-30T04:35:06;14.20;99.90
24456;DHT22;12628;50.860;5.714;2023-07-30T04:37:33;14.30;99.90
24456;DHT22;12628;50.860;5.714;2023-07-30T04:40:00;14.30;99.90
24456;DHT22;12628;50.860;5.714;2023-07-30T04:42:27;14.30;99.90
24456;DHT22;12628;50.860;5.714;2023-07-30T04:44:54;14.30;99.90
24456;DHT22;12628;50.860;5.714;2023-07-30T04:47:22;14.30;99.90
24456;DHT22;12628;50.860;5.714;2023-07-30T04:49:49;14.30;99.90
24456;DHT22;12628;50.860;5.714;2023-07-30T04:52:16;14.40;99.90
24456;DHT22;12628;50.860;5.714;2023-07-30T04:54:43;14.40;99.90
24456;DHT22;12628;50.860;5.714;2023-07-30T04:57:10;14.50;99.90
24456;DHT22;12628;50.860;5.714;2023-07-30T04:59:37;14.50;99.90
24456;DHT22;12628;50.860;5.714;2023-07-30T05:02:05;14.50;99.90
24456;DHT22;12628;50.860;5.714;2023-07-30T05:04:33;14.60;99.90
24456;DHT22;12628;50.860;5.714;2023-07-30T05:07:00;14.60;99.90
24456;DHT22;12628;50.860;5.714;2023-07-30T05:09:27;14.70;99.90
24456;DHT22;12628;50.860;5.714;2023-07-30T05:11:54;14.70;99.90
24456;DHT22;12628;50.860;5.714;2023-07-30T05:14:21;14.70;99.90
24456;DHT22;12628;50.860;5.714;2023-07-30T05:16:48;14.80;99.90
24456;DHT22;12628;50.860;5.714;2023-07-30T05:19:15;14.80;99.90
24456;DHT22;12628;50.860;5.714;2023-07-30T05:21:43;14.80;99.90
24456;DHT22;12628;50.860;5.714;2023-07-30T05:24:10;14.90;99.90
24456;DHT22;12628;50.860;5.714;2023-07-30T05:26:37;14.90;99.90
24456;DHT22;12628;50.860;5.714;2023-07-30T05:29:04;14.90;99.90
24456;DHT22;12628;50.860;5.714;2023-07-30T05:31:31;14.90;99.90
24456;DHT22;12628;50.860;5.714;2023-07-30T05:33:58;14.90;99.90
24456;DHT22;12628;50.860;5.714;2023-07-30T05:36:25;15.00;99.90
24456;DHT22;12628;50.860;5.714;2023-07-30T05:38:54;14.90;99.90
24456;DHT22;12628;50.860;5.714;2023-07-30T05:41:21;15.00;99.90
24456;DHT22;12628;50.860;5.714;2023-07-30T05:43:47;15.10;99.90
24456;DHT22;12628;50.860;5.714;2023-07-30T05:46:15;15.20;99.90
24456;DHT22;12628;50.860;5.714;2023-07-30T05:48:41;15.30;99.90
24456;DHT22;12628;50.860;5.714;2023-07-30T05:51:08;15.30;99.90
24456;DHT22;12628;50.860;5.714;2023-07-30T05:53:35;15.40;99.90
24456;DHT22;12628;50.860;5.714;2023-07-30T05:56:04;15.50;99.90
24456;DHT22;12628;50.860;5.714;2023-07-30T05:58:31;15.50;99.90
24456;DHT22;12628;50.860;5.714;2023-07-30T06:00:58;15.40;99.90
24456;DHT22;12628;50.860;5.714;2023-07-30T06:03:25;15.40;99.90
24456;DHT22;12628;50.860;5.714;2023-07-30T06:05:52;15.40;99.90
24456;DHT22;12628;50.860;5.714;2023-07-30T06:08:19;15.50;99.90
24456;DHT22;12628;50.860;5.714;2023-07-30T06:10:46;15.50;99.90
24456;DHT22;12628;50.860;5.714;2023-07-30T06:13:15;15.50;99.90
24456;DHT22;12628;50.860;5.714;2023-07-30T06:15:42;15.50;99.90
24456;DHT22;12628;50.860;5.714;2023-07-30T06:18:09;15.60;99.90
24456;DHT22;12628;50.860;5.714;2023-07-30T06:20:36;15.70;99.90
24456;DHT22;12628;50.860;5.714;2023-07-30T06:23:03;15.70;99.90
24456;DHT22;12628;50.860;5.714;2023-07-30T06:25:30;15.80;99.90
24456;DHT22;12628;50.860;5.714;2023-07-30T06:27:57;15.90;99.90
24456;DHT22;12628;50.860;5.714;2023-07-30T06:30:26;16.10;99.90
24456;DHT22;12628;50.860;5.714;2023-07-30T06:32:53;16.20;99.90
24456;DHT22;12628;50.860;5.714;2023-07-30T06:35:20;16.20;99.90
24456;DHT22;12628;50.860;5.714;2023-07-30T06:37:47;16.30;99.90
24456;DHT22;12628;50.860;5.714;2023-07-30T06:40:14;16.50;99.90
24456;DHT22;12628;50.860;5.714;2023-07-30T06:42:41;16.60;99.90
24456;DHT22;12628;50.860;5.714;2023-07-30T06:45:08;16.60;99.90
24456;DHT22;12628;50.860;5.714;2023-07-30T06:47:37;16.70;99.90
24456;DHT22;12628;50.860;5.714;2023-07-30T06:50:04;16.60;99.90
24456;DHT22;12628;50.860;5.714;2023-07-30T06:52:33;16.60;99.90
24456;DHT22;12628;50.860;5.714;2023-07-30T06:55:00;16.50;99.90
24456;DHT22;12628;50.860;5.714;2023-07-30T06:57:28;16.60;99.90
24456;DHT22;12628;50.860;5.714;2023-07-30T06:59:55;16.60;99.90
24456;DHT22;12628;50.860;5.714;2023-07-30T07:02:22;16.70;99.90
24456;DHT22;12628;50.860;5.714;2023-07-30T07:04:50;16.80;99.90
24456;DHT22;12628;50.860;5.714;2023-07-30T07:07:17;16.80;99.90
24456;DHT22;12628;50.860;5.714;2023-07-30T07:09:44;17.00;99.90
24456;DHT22;12628;50.860;5.714;2023-07-30T07:12:12;17.10;99.90
24456;DHT22;12628;50.860;5.714;2023-07-30T07:14:39;17.40;99.90
24456;DHT22;12628;50.860;5.714;2023-07-30T07:17:07;17.50;99.90
24456;DHT22;12628;50.860;5.714;2023-07-30T07:19:35;17.70;99.90
24456;DHT22;12628;50.860;5.714;2023-07-30T07:22:04;17.60;99.90
24456;DHT22;12628;50.860;5.714;2023-07-30T07:24:31;17.70;99.90
24456;DHT22;12628;50.860;5.714;2023-07-30T07:26:58;17.70;99.90
24456;DHT22;12628;50.860;5.714;2023-07-30T07:29:24;17.80;99.90
24456;DHT22;12628;50.860;5.714;2023-07-30T07:31:51;17.70;99.90
24456;DHT22;12628;50.860;5.714;2023-07-30T07:34:18;17.60;99.90
24456;DHT22;12628;50.860;5.714;2023-07-30T07:36:45;17.40;99.90
24456;DHT22;12628;50.860;5.714;2023-07-30T07:39:14;17.40;99.90
24456;DHT22;12628;50.860;5.714;2023-07-30T07:41:41;17.50;99.90
24456;DHT22;12628;50.860;5.714;2023-07-30T07:44:08;17.40;99.90
24456;DHT22;12628;50.860;5.714;2023-07-30T07:46:35;17.30;99.90
24456;DHT22;12628;50.860;5.714;2023-07-30T07:49:02;17.80;99.90
24456;DHT22;12628;50.860;5.714;2023-07-30T07:51:29;18.40;99.90
24456;DHT22;12628;50.860;5.714;2023-07-30T07:53:56;19.20;99.90
24456;DHT22;12628;50.860;5.714;2023-07-30T07:56:25;19.70;99.90
24456;DHT22;12628;50.860;5.714;2023-07-30T07:58:52;19.60;99.90
24456;DHT22;12628;50.860;5.714;2023-07-30T08:01:19;20.00;99.90
24456;DHT22;12628;50.860;5.714;2023-07-30T08:03:46;20.80;99.90
24456;DHT22;12628;50.860;5.714;2023-07-30T08:06:13;21.10;99.90
24456;DHT22;12628;50.860;5.714;2023-07-30T08:08:40;21.10;99.90
24456;DHT22;12628;50.860;5.714;2023-07-30T08:11:07;22.00;99.90
24456;DHT22;12628;50.860;5.714;2023-07-30T08:13:35;22.60;99.90
24456;DHT22;12628;50.860;5.714;2023-07-30T08:16:02;22.40;99.90
24456;DHT22;12628;50.860;5.714;2023-07-30T08:18:29;21.50;99.90
24456;DHT22;12628;50.860;5.714;2023-07-30T08:20:56;20.80;99.90
24456;DHT22;12628;50.860;5.714;2023-07-30T08:23:23;20.80;99.90
24456;DHT22;12628;50.860;5.714;2023-07-30T08:25:50;20.20;99.90
24456;DHT22;12628;50.860;5.714;2023-07-30T08:28:17;20.40;99.90
24456;DHT22;12628;50.860;5.714;2023-07-30T08:30:46;20.40;99.90
24456;DHT22;12628;50.860;5.714;2023-07-30T08:33:12;20.40;99.90
24456;DHT22;12628;50.860;5.714;2023-07-30T08:35:39;20.40;99.90
24456;DHT22;12628;50.860;5.714;2023-07-30T08:38:06;21.60;99.90
24456;DHT22;12628;50.860;5.714;2023-07-30T08:40:33;21.40;99.90
24456;DHT22;12628;50.860;5.714;2023-07-30T08:43:00;20.60;99.90
24456;DHT22;12628;50.860;5.714;2023-07-30T08:45:29;20.60;99.90
24456;DHT22;12628;50.860;5.714;2023-07-30T08:47:57;20.00;99.90
24456;DHT22;12628;50.860;5.714;2023-07-30T08:50:24;19.80;99.90
24456;DHT22;12628;50.860;5.714;2023-07-30T08:52:52;20.70;99.90
24456;DHT22;12628;50.860;5.714;2023-07-30T08:55:20;22.00;99.90
24456;DHT22;12628;50.860;5.714;2023-07-30T08:57:48;22.80;99.90
24456;DHT22;12628;50.860;5.714;2023-07-30T09:00:17;23.60;99.90
24456;DHT22;12628;50.860;5.714;2023-07-30T09:02:47;22.80;99.90
24456;DHT22;12628;50.860;5.714;2023-07-30T09:05:15;22.50;99.90
24456;DHT22;12628;50.860;5.714;2023-07-30T09:07:42;22.30;99.90
24456;DHT22;12628;50.860;5.714;2023-07-30T09:10:10;22.70;99.90
24456;DHT22;12628;50.860;5.714;2023-07-30T09:12:37;22.40;99.90
24456;DHT22;12628;50.860;5.714;2023-07-30T09:15:04;22.20;99.90
24456;DHT22;12628;50.860;5.714;2023-07-30T09:17:32;22.40;99.90
24456;DHT22;12628;50.860;5.714;2023-07-30T09:19:59;21.60;99.90
24456;DHT22;12628;50.860;5.714;2023-07-30T09:22:28;21.00;99.90
24456;DHT22;12628;50.860;5.714;2023-07-30T09:24:56;22.20;99.90
24456;DHT22;12628;50.860;5.714;2023-07-30T09:27:24;23.00;99.90
24456;DHT22;12628;50.860;5.714;2023-07-30T09:29:52;22.80;99.90
24456;DHT22;12628;50.860;5.714;2023-07-30T09:32:19;22.50;99.90
24456;DHT22;12628;50.860;5.714;2023-07-30T09:34:46;22.90;99.90
24456;DHT22;12628;50.860;5.714;2023-07-30T09:37:13;23.70;99.90
24456;DHT22;12628;50.860;5.714;2023-07-30T09:39:42;23.30;99.90
24456;DHT22;12628;50.860;5.714;2023-07-30T09:42:10;22.30;99.90
24456;DHT22;12628;50.860;5.714;2023-07-30T09:44:37;21.40;99.90
24456;DHT22;12628;50.860;5.714;2023-07-30T09:47:05;21.10;99.90
24456;DHT22;12628;50.860;5.714;2023-07-30T09:49:35;20.60;99.90
24456;DHT22;12628;50.860;5.714;2023-07-30T09:52:02;20.90;99.90
24456;DHT22;12628;50.860;5.714;2023-07-30T09:54:30;21.70;99.90
24456;DHT22;12628;50.860;5.714;2023-07-30T09:56:59;21.40;99.90
24456;DHT22;12628;50.860;5.714;2023-07-30T09:59:27;21.10;99.90
24456;DHT22;12628;50.860;5.714;2023-07-30T10:01:54;20.80;99.90
24456;DHT22;12628;50.860;5.714;2023-07-30T10:04:22;20.90;99.90
24456;DHT22;12628;50.860;5.714;2023-07-30T10:06:50;20.70;99.90
24456;DHT22;12628;50.860;5.714;2023-07-30T10:09:18;20.30;99.90
24456;DHT22;12628;50.860;5.714;2023-07-30T10:11:46;20.40;99.90
24456;DHT22;12628;50.860;5.714;2023-07-30T10:14:17;20.30;99.90
24456;DHT22;12628;50.860;5.714;2023-07-30T10:16:49;20.10;99.90
24456;DHT22;12628;50.860;5.714;2023-07-30T10:19:16;19.90;99.90
24456;DHT22;12628;50.860;5.714;2023-07-30T10:21:44;19.90;99.90
24456;DHT22;12628;50.860;5.714;2023-07-30T10:24:11;20.50;99.90
24456;DHT22;12628;50.860;5.714;2023-07-30T10:26:38;21.20;99.90
24456;DHT22;12628;50.860;5.714;2023-07-30T10:29:14;22.10;99.90
24456;DHT22;12628;50.860;5.714;2023-07-30T10:31:44;22.10;99.90
24456;DHT22;12628;50.860;5.714;2023-07-30T10:34:14;21.70;99.90
24456;DHT22;12628;50.860;5.714;2023-07-30T10:36:42;21.20;99.90
24456;DHT22;12628;50.860;5.714;2023-07-30T10:39:13;20.60;99.90
